Time;durP1;ratioP1;P1;durP2;ratioP2;P2;SDS_P1;SDS_P2;PMS_P1;PMS_P2;Temp;Humidity;BMP_temperature;BMP_pressure;BME280_temperature;BME280_humidity;BME280_pressure;Samples;Min_cycle;Max_cycle;Signal;HPM_P1;HPM_P2
2021/03/20 00:02:17;;;;;;;13.15;7.90;;;-1.10;99.90;;;;;;5091929;28;20089;-76
2021/03/20 00:04:49;;;;;;;11.60;8.30;;;-1.10;99.90;;;;;;5076046;28;20047;-76
2021/03/20 00:07:20;;;;;;;13.00;7.90;;;-1.20;99.90;;;;;;5075845;28;20101;-76
2021/03/20 00:09:53;;;;;;;13.88;8.02;;;-1.20;99.90;;;;;;5087577;28;20048;-76
2021/03/20 00:12:24;;;;;;;12.38;7.55;;;-1.20;99.90;;;;;;5057774;28;20051;-76
2021/03/20 00:14:56;;;;;;;13.60;7.93;;;-1.30;99.90;;;;;;5072539;28;20046;-76
2021/03/20 00:17:27;;;;;;;11.85;7.55;;;-1.30;99.90;;;;;;5060146;28;20048;-76
2021/03/20 00:19:59;;;;;;;13.32;8.45;;;-1.40;99.90;;;;;;5082828;28;20051;-76
2021/03/20 00:22:30;;;;;;;12.45;8.00;;;-1.40;99.90;;;;;;5068934;28;20067;-76
2021/03/20 00:25:04;;;;;;;13.07;7.60;;;-1.40;99.90;;;;;;5061471;28;20043;-76
2021/03/20 00:27:35;;;;;;;13.68;7.85;;;-1.50;99.90;;;;;;5076265;28;20039;-76
2021/03/20 00:30:08;;;;;;;16.38;9.27;;;-1.50;99.90;;;;;;5091083;28;20138;-76
2021/03/20 00:32:39;;;;;;;16.08;8.50;;;-1.50;99.90;;;;;;5092356;28;20061;-76
2021/03/20 00:35:12;;;;;;;15.48;8.65;;;-1.50;99.90;;;;;;5076395;28;20043;-76
2021/03/20 00:37:43;;;;;;;15.88;9.02;;;-1.40;99.90;;;;;;5075882;28;20070;-76
2021/03/20 00:40:18;;;;;;;15.32;8.70;;;-1.50;99.90;;;;;;5075860;28;20044;-76
2021/03/20 00:42:44;;;;;;;14.90;8.73;;;-1.50;99.90;;;;;;5092037;28;20051;-76
2021/03/20 00:45:16;;;;;;;12.60;7.80;;;-1.50;99.90;;;;;;5076067;28;20494;-76
2021/03/20 00:47:48;;;;;;;15.55;8.95;;;-1.50;99.90;;;;;;5078615;28;20122;-76
2021/03/20 00:50:23;;;;;;;17.27;9.25;;;-1.50;99.90;;;;;;5079453;28;20047;-76
2021/03/20 00:52:49;;;;;;;14.25;8.75;;;-1.50;99.90;;;;;;5079042;28;20463;-76
2021/03/20 00:55:20;;;;;;;14.23;8.10;;;-1.50;99.90;;;;;;5079672;28;20092;-76
2021/03/20 00:57:52;;;;;;;13.70;8.73;;;-1.60;99.90;;;;;;5113806;28;20405;-76
2021/03/20 01:00:25;;;;;;;13.60;8.02;;;-1.50;99.90;;;;;;5079434;28;20118;-76
2021/03/20 01:02:57;;;;;;;;;;;-1.50;99.90;;;;;;5079839;28;20097;-77
2021/03/20 01:05:28;;;;;;;12.75;6.93;;;-1.60;99.90;;;;;;5079559;28;20487;-76
2021/03/20 01:07:59;;;;;;;16.50;9.63;;;-1.60;99.90;;;;;;5079432;28;20035;-76
2021/03/20 01:10:31;;;;;;;16.90;9.60;;;-1.60;99.90;;;;;;5096419;28;20031;-77
2021/03/20 01:13:02;;;;;;;13.00;8.30;;;-1.60;99.90;;;;;;5079778;28;20498;-79
2021/03/20 01:15:34;;;;;;;14.77;8.88;;;-1.60;99.90;;;;;;5078866;28;20138;-76
2021/03/20 01:18:05;;;;;;;13.45;8.45;;;-1.50;99.90;;;;;;5077559;28;20097;-76
2021/03/20 01:20:37;;;;;;;15.30;9.32;;;-1.50;99.90;;;;;;5079137;28;20281;-76
2021/03/20 01:23:09;;;;;;;15.88;9.15;;;-1.50;99.90;;;;;;5095947;28;20035;-76
2021/03/20 01:25:40;;;;;;;13.80;9.07;;;-1.50;99.90;;;;;;5096259;28;20049;-76
2021/03/20 01:28:07;;;;;;;17.65;9.57;;;-1.50;99.90;;;;;;5094972;28;20493;-76
2021/03/20 01:30:42;;;;;;;15.57;8.93;;;-1.50;99.90;;;;;;5079037;28;20039;-76
2021/03/20 01:33:13;;;;;;;14.95;8.32;;;-1.50;99.90;;;;;;5113371;28;20067;-76
2021/03/20 01:35:45;;;;;;;15.00;9.02;;;-1.50;99.90;;;;;;5079276;28;20040;-76
2021/03/20 01:38:17;;;;;;;14.25;8.70;;;-1.50;99.90;;;;;;5079012;28;20039;-76
2021/03/20 01:40:55;;;;;;;13.50;8.43;;;-1.60;99.90;;;;;;5079073;28;20409;-76
2021/03/20 01:43:28;;;;;;;17.20;9.20;;;-1.50;99.90;;;;;;5079061;28;20043;-76
2021/03/20 01:46:32;;;;;;;14.60;8.02;;;-1.50;99.90;;;;;;5079017;28;20528;-76
2021/03/20 01:48:59;;;;;;;13.13;8.60;;;-1.40;99.90;;;;;;5094719;28;20387;-77
2021/03/20 01:51:25;;;;;;;13.98;8.65;;;-1.40;99.90;;;;;;5094933;28;20391;-76
2021/03/20 01:53:56;;;;;;;14.98;8.27;;;-1.40;99.90;;;;;;5078055;28;20274;-76
2021/03/20 01:56:32;;;;;;;13.52;8.77;;;-1.40;99.90;;;;;;5094708;28;20067;-76
2021/03/20 01:59:03;;;;;;;12.68;7.85;;;-1.50;99.90;;;;;;5077893;28;20047;-77
2021/03/20 02:01:31;;;;;;;13.27;7.85;;;-1.40;99.90;;;;;;5077386;28;20043;-76
2021/03/20 02:03:58;;;;;;;11.88;7.68;;;-1.40;99.90;;;;;;5077419;28;20498;-76
2021/03/20 02:06:26;;;;;;;16.50;9.43;;;-1.40;99.90;;;;;;5094091;28;20406;-76
2021/03/20 02:09:05;;;;;;;11.25;6.72;;;-1.40;99.90;;;;;;5077355;28;20035;-76
2021/03/20 02:12:13;;;;;;;13.90;8.65;;;-1.40;99.90;;;;;;5094858;28;20043;-77
2021/03/20 02:14:54;;;;;;;14.63;8.43;;;-1.30;99.90;;;;;;5076603;28;20426;-76
2021/03/20 02:17:54;;;;;;;15.63;8.45;;;-1.30;99.90;;;;;;5094893;28;20135;-76
2021/03/20 02:21:13;;;;;;;14.85;7.47;;;-1.30;99.90;;;;;;5094092;28;20415;-76
2021/03/20 02:24:29;;;;;;;12.00;7.18;;;-1.20;99.90;;;;;;4976614;28;20081;-76
2021/03/20 02:27:40;;;;;;;12.95;7.07;;;-1.20;99.90;;;;;;5094157;28;20497;-76
2021/03/20 02:30:51;;;;;;;12.38;7.28;;;-1.30;99.90;;;;;;5077269;28;20555;-76
2021/03/20 02:33:34;;;;;;;13.68;7.35;;;-1.30;99.90;;;;;;5094629;28;20043;-77
2021/03/20 02:36:05;;;;;;;12.32;7.20;;;-1.30;99.90;;;;;;5077781;28;20061;-77
2021/03/20 02:38:51;;;;;;;13.57;7.82;;;-1.30;99.90;;;;;;5077496;28;20495;-76
2021/03/20 02:41:52;;;;;;;11.52;7.10;;;-1.30;99.90;;;;;;5077005;28;20048;-76
2021/03/20 02:44:30;;;;;;;11.30;6.68;;;-1.30;99.90;;;;;;5094701;28;20039;-76
2021/03/20 02:47:04;;;;;;;11.15;7.25;;;-1.30;99.90;;;;;;5077554;28;20074;-76
2021/03/20 02:49:50;;;;;;;10.90;7.28;;;-1.20;99.90;;;;;;5077054;28;20272;-77
2021/03/20 02:52:29;;;;;;;12.55;6.90;;;-1.20;99.90;;;;;;5076854;28;20191;-76
2021/03/20 02:55:03;;;;;;;11.70;7.72;;;-1.20;99.90;;;;;;5093664;28;20043;-76
2021/03/20 02:57:37;;;;;;;12.75;7.25;;;-1.20;99.90;;;;;;5077351;28;20044;-77
2021/03/20 03:00:31;;;;;;;13.43;7.25;;;-1.20;99.90;;;;;;5077195;28;20483;-76
2021/03/20 03:03:05;;;;;;;11.93;7.43;;;-1.20;99.90;;;;;;5077128;28;20109;-77
2021/03/20 03:05:42;;;;;;;12.43;7.78;;;-1.20;99.90;;;;;;5077079;28;20050;-77
2021/03/20 03:08:26;;;;;;;12.27;7.50;;;-1.20;99.90;;;;;;5076926;28;20036;-77
2021/03/20 03:11:26;;;;;;;13.15;8.68;;;-1.30;99.90;;;;;;5076542;28;20458;-77
2021/03/20 03:14:11;;;;;;;14.20;8.27;;;-1.40;99.90;;;;;;5093352;28;20581;-76
2021/03/20 03:16:49;;;;;;;13.65;7.13;;;-1.40;99.90;;;;;;5076909;28;20050;-76
2021/03/20 03:19:25;;;;;;;15.18;8.10;;;-1.40;99.90;;;;;;5076685;28;20051;-76
2021/03/20 03:21:55;;;;;;;11.57;7.97;;;-1.40;99.90;;;;;;5076021;28;20142;-76
2021/03/20 03:24:29;;;;;;;11.50;7.40;;;-1.40;99.90;;;;;;5092970;28;20050;-76
2021/03/20 03:27:07;;;;;;;13.30;7.38;;;-1.50;99.90;;;;;;5076943;28;20044;-76
2021/03/20 03:29:36;;;;;;;15.43;7.90;;;-1.50;99.90;;;;;;5075859;28;20151;-76
2021/03/20 03:32:36;;;;;;;15.38;7.95;;;-1.50;99.90;;;;;;5092886;28;20134;-76
2021/03/20 03:35:17;;;;;;;12.55;7.50;;;-1.50;99.90;;;;;;5076758;28;20063;-76
2021/03/20 03:38:03;;;;;;;13.23;7.45;;;-1.50;99.90;;;;;;5076369;28;20050;-76
2021/03/20 03:41:06;;;;;;;13.35;6.90;;;-1.40;99.90;;;;;;5076596;28;20417;-76
2021/03/20 03:43:33;;;;;;;12.18;7.45;;;-1.50;99.90;;;;;;5075628;28;20509;-76
2021/03/20 03:46:06;;;;;;;10.25;6.65;;;-1.50;99.90;;;;;;5076857;28;20146;-76
2021/03/20 03:48:37;;;;;;;11.20;7.13;;;-1.50;99.90;;;;;;5093611;28;20036;-77
2021/03/20 03:51:13;;;;;;;13.65;6.93;;;-1.50;99.90;;;;;;5076192;28;20071;-77
2021/03/20 03:53:40;;;;;;;10.63;6.65;;;-1.50;99.90;;;;;;5092227;28;20150;-77
2021/03/20 03:56:42;;;;;;;12.52;7.15;;;-1.50;99.90;;;;;;5076630;28;20050;-76
2021/03/20 03:59:24;;;;;;;11.88;7.22;;;-1.50;99.90;;;;;;5110667;28;20044;-77
2021/03/20 04:02:23;;;;;;;11.93;7.03;;;-1.50;99.90;;;;;;5076255;28;20550;-77
2021/03/20 04:05:02;;;;;;;11.90;6.68;;;-1.50;99.90;;;;;;5076739;28;20057;-77
2021/03/20 04:08:01;;;;;;;10.88;6.50;;;-1.50;99.90;;;;;;5092534;28;20123;-77
2021/03/20 04:11:02;;;;;;;7.50;4.65;;;-1.50;99.90;;;;;;5092301;28;20146;-76
2021/03/20 04:13:49;;;;;;;11.43;6.43;;;-1.50;99.90;;;;;;5065343;28;20053;-77
2021/03/20 04:16:25;;;;;;;11.13;6.82;;;-1.50;99.90;;;;;;5076523;28;20413;-77
2021/03/20 04:19:13;;;;;;;11.35;7.07;;;-1.60;99.90;;;;;;5076161;28;20449;-77
2021/03/20 04:22:05;;;;;;;11.73;6.85;;;-1.60;99.90;;;;;;5077134;28;20036;-77
2021/03/20 04:24:50;;;;;;;14.20;7.15;;;-1.60;99.90;;;;;;5080401;28;20040;-77
2021/03/20 04:27:26;;;;;;;12.93;7.32;;;-1.60;99.90;;;;;;5079787;28;20048;-77
2021/03/20 04:30:24;;;;;;;14.82;7.47;;;-1.60;99.90;;;;;;5080335;28;20046;-77
2021/03/20 04:33:05;;;;;;;13.05;7.18;;;-1.60;99.90;;;;;;5080304;28;20043;-77
2021/03/20 04:35:47;;;;;;;13.02;7.57;;;-1.60;99.90;;;;;;5080241;28;20109;-77
2021/03/20 04:38:19;;;;;;;9.15;5.90;;;-1.60;99.90;;;;;;5080032;28;20053;-77
2021/03/20 04:40:55;;;;;;;10.48;6.53;;;-1.60;99.90;;;;;;5096918;28;20049;-76
2021/03/20 04:43:25;;;;;;;12.40;7.25;;;-1.60;99.90;;;;;;5096065;28;20044;-77
2021/03/20 04:46:03;;;;;;;11.95;6.95;;;-1.60;99.90;;;;;;5097102;28;20046;-77
2021/03/20 04:48:37;;;;;;;13.45;7.00;;;-1.60;99.90;;;;;;5095966;28;20046;-77
2021/03/20 04:51:14;;;;;;;;;;;-1.60;99.90;;;;;;5080395;28;20138;-77
2021/03/20 04:53:48;;;;;;;10.18;6.22;;;-1.60;99.90;;;;;;5079701;28;20378;-77
2021/03/20 04:56:20;;;;;;;;;;;-1.70;99.90;;;;;;5080156;28;20071;-76
2021/03/20 04:59:03;;;;;;;11.38;6.60;;;-1.70;99.90;;;;;;5096476;28;20014;-76
2021/03/20 05:01:58;;;;;;;11.77;6.57;;;-1.70;99.90;;;;;;5079426;28;20039;-76
2021/03/20 05:04:37;;;;;;;10.95;6.57;;;-1.60;99.90;;;;;;5079412;28;20138;-76
2021/03/20 05:07:04;;;;;;;14.48;7.50;;;-1.60;99.90;;;;;;5078890;28;20143;-77
2021/03/20 05:09:30;;;;;;;11.60;6.90;;;-1.60;99.90;;;;;;5095379;28;20146;-76
2021/03/20 05:12:14;;;;;;;10.93;6.80;;;-1.60;99.90;;;;;;5079449;28;20047;-76
2021/03/20 05:15:01;;;;;;;10.80;6.60;;;-1.60;99.90;;;;;;5079574;28;20182;-76
2021/03/20 05:17:28;;;;;;;10.32;6.00;;;-1.60;99.90;;;;;;5096549;28;20556;-76
2021/03/20 05:19:59;;;;;;;11.98;6.78;;;-1.60;99.90;;;;;;5078959;28;20047;-76
2021/03/20 05:22:32;;;;;;;9.60;6.20;;;-1.60;99.90;;;;;;5078994;28;20573;-76
2021/03/20 05:25:04;;;;;;;11.80;5.72;;;-1.60;99.90;;;;;;5079184;28;20047;-76
2021/03/20 05:27:35;;;;;;;12.05;6.57;;;-1.60;99.90;;;;;;5078914;28;20064;-76
2021/03/20 05:30:08;;;;;;;10.98;6.75;;;-1.60;99.90;;;;;;5078856;28;20047;-76
2021/03/20 05:32:39;;;;;;;10.45;7.03;;;-1.60;99.90;;;;;;5095504;28;20118;-76
2021/03/20 05:35:20;;;;;;;10.00;6.00;;;-1.50;99.90;;;;;;5078778;28;20081;-76
2021/03/20 05:37:52;;;;;;;10.13;5.72;;;-1.50;99.90;;;;;;5078333;28;20135;-76
2021/03/20 05:40:28;;;;;;;9.38;5.65;;;-1.40;99.90;;;;;;5094618;28;20074;-76
2021/03/20 05:43:25;;;;;;;9.25;5.07;;;-1.40;99.90;;;;;;5078746;28;20052;-76
2021/03/20 05:46:14;;;;;;;11.75;6.97;;;-1.40;99.90;;;;;;5078691;28;20122;-76
2021/03/20 05:48:58;;;;;;;9.00;5.93;;;-1.40;99.90;;;;;;5078404;28;20126;-76
2021/03/20 05:51:53;;;;;;;8.60;4.90;;;-1.40;99.90;;;;;;5095738;28;20063;-76
2021/03/20 05:54:41;;;;;;;9.75;5.13;;;-1.40;99.90;;;;;;5077800;28;20151;-76
2021/03/20 05:57:21;;;;;;;6.95;4.35;;;-1.40;99.90;;;;;;5070663;28;20146;-76
2021/03/20 06:00:19;;;;;;;7.28;4.35;;;-1.40;99.90;;;;;;5075501;28;20036;-76
2021/03/20 06:03:22;;;;;;;8.18;3.97;;;-1.50;99.90;;;;;;5084667;28;20107;-76
2021/03/20 06:06:36;;;;;;;6.43;3.63;;;-1.50;99.90;;;;;;5056231;28;20139;-76
2021/03/20 06:09:16;;;;;;;5.95;3.75;;;-1.40;99.90;;;;;;5055845;28;20142;-76
2021/03/20 06:12:01;;;;;;;7.45;3.72;;;-1.50;99.90;;;;;;5056551;28;20080;-77
2021/03/20 06:15:13;;;;;;;8.00;3.97;;;-1.60;99.90;;;;;;5073052;28;20044;-76
2021/03/20 06:18:03;;;;;;;8.88;4.00;;;-1.60;99.90;;;;;;5073513;28;20059;-76
2021/03/20 06:21:07;;;;;;;5.57;3.22;;;-1.70;99.90;;;;;;5078852;28;20044;-76
2021/03/20 06:23:46;;;;;;;5.35;3.67;;;-1.70;99.90;;;;;;5062267;28;20063;-76
2021/03/20 06:26:36;;;;;;;6.30;3.38;;;-1.70;99.90;;;;;;5062293;28;20033;-76
2021/03/20 06:29:17;;;;;;;6.20;3.97;;;-1.70;99.90;;;;;;5077169;28;20128;-76
2021/03/20 06:31:59;;;;;;;7.50;4.00;;;-1.70;99.90;;;;;;5064811;28;20043;-76
2021/03/20 06:34:41;;;;;;;7.07;3.83;;;-1.70;99.90;;;;;;5052899;28;20135;-76
2021/03/20 06:37:26;;;;;;;8.00;4.18;;;-1.70;99.90;;;;;;5069754;28;20040;-76
2021/03/20 06:40:42;;;;;;;7.60;4.85;;;-1.60;99.90;;;;;;5057991;28;20049;-76
2021/03/20 06:43:16;;;;;;;6.43;4.38;;;-1.50;99.90;;;;;;5056266;28;20127;-76
2021/03/20 06:45:43;;;;;;;8.15;5.25;;;-1.40;99.90;;;;;;5055655;28;20598;-76
2021/03/20 06:48:21;;;;;;;9.05;5.22;;;-1.40;99.90;;;;;;5056280;28;20048;-76
2021/03/20 06:50:55;;;;;;;6.13;3.92;;;-1.40;99.90;;;;;;5073582;28;20085;-76
2021/03/20 06:53:43;;;;;;;5.65;3.88;;;-1.30;99.90;;;;;;5072950;28;20064;-76
2021/03/20 06:56:16;;;;;;;8.05;4.18;;;-1.30;99.90;;;;;;5072846;28;20039;-76
2021/03/20 06:58:48;;;;;;;9.88;4.32;;;-1.40;99.90;;;;;;5056673;28;20487;-76
2021/03/20 07:01:25;;;;;;;8.20;5.43;;;-1.50;99.90;;;;;;5057450;28;20044;-76
2021/03/20 07:04:25;;;;;;;7.55;4.65;;;-1.50;99.90;;;;;;5073233;28;20044;-77
2021/03/20 07:07:15;;;;;;;5.97;4.57;;;-1.50;99.90;;;;;;5065937;28;20036;-75
2021/03/20 07:09:50;;;;;;;6.57;3.92;;;-1.50;99.90;;;;;;5068274;28;20538;-77
2021/03/20 07:12:24;;;;;;;5.35;3.90;;;-1.50;99.90;;;;;;5055670;28;20139;-76
2021/03/20 07:14:58;;;;;;;10.95;6.75;;;-1.50;99.90;;;;;;5078768;28;20157;-76
2021/03/20 07:17:37;;;;;;;9.35;5.22;;;-1.40;99.90;;;;;;5075866;28;20039;-76
2021/03/20 07:20:16;;;;;;;7.30;4.47;;;-1.30;99.90;;;;;;5091540;28;20044;-76
2021/03/20 07:22:51;;;;;;;6.47;5.03;;;-1.20;99.90;;;;;;5091868;28;20043;-76
2021/03/20 07:25:27;;;;;;;7.70;4.90;;;-1.20;99.90;;;;;;5075576;28;20032;-76
2021/03/20 07:28:08;;;;;;;7.68;3.95;;;-1.20;99.90;;;;;;5091084;28;20131;-76
2021/03/20 07:30:59;;;;;;;8.10;4.50;;;-1.20;99.90;;;;;;5075389;28;20134;-76
2021/03/20 07:33:43;;;;;;;7.03;4.13;;;-1.20;99.90;;;;;;5075573;28;20044;-76
2021/03/20 07:36:20;;;;;;;;;;;-1.20;99.90;;;;;;5076165;28;20138;-76
2021/03/20 07:39:15;;;;;;;8.02;4.38;;;-1.20;99.90;;;;;;5075373;28;19919;-76
2021/03/20 07:41:53;;;;;;;7.50;4.43;;;-1.30;99.90;;;;;;5052884;28;20112;-76
2021/03/20 07:44:27;;;;;;;6.90;5.07;;;-1.30;99.90;;;;;;5035551;28;20051;-76
2021/03/20 07:46:58;;;;;;;9.02;5.55;;;-1.20;99.90;;;;;;5052633;28;20399;-76
2021/03/20 07:49:33;;;;;;;6.85;4.00;;;-1.10;99.90;;;;;;5035026;28;20047;-76
2021/03/20 07:52:24;;;;;;;42.50;16.92;;;-1.00;99.90;;;;;;5051641;28;20044;-77
2021/03/20 07:55:17;;;;;;;58.00;24.65;;;-0.90;99.90;;;;;;5051562;28;20602;-76
2021/03/20 07:57:52;;;;;;;30.27;13.05;;;-0.80;99.90;;;;;;5051099;28;20045;-76
2021/03/20 08:00:30;;;;;;;13.32;5.43;;;-0.60;99.90;;;;;;5035233;28;20048;-76
2021/03/20 08:03:15;;;;;;;7.80;4.53;;;-0.50;99.90;;;;;;5042310;28;20142;-75
2021/03/20 08:05:46;;;;;;;7.53;4.60;;;-0.40;99.90;;;;;;5089268;28;20119;-76
2021/03/20 08:08:25;;;;;;;11.30;5.70;;;-0.50;99.90;;;;;;5055115;28;20036;-76
2021/03/20 08:10:58;;;;;;;35.25;13.27;;;-0.50;99.90;;;;;;5055242;28;20138;-76
2021/03/20 08:13:46;;;;;;;22.38;10.32;;;-0.50;99.90;;;;;;5072552;28;20240;-76
2021/03/20 08:16:20;;;;;;;9.57;4.43;;;-0.50;99.90;;;;;;5055215;28;20043;-76
2021/03/20 08:18:55;;;;;;;9.07;4.60;;;-0.60;99.90;;;;;;5054890;28;20044;-76
2021/03/20 08:21:41;;;;;;;7.07;4.15;;;-0.50;99.90;;;;;;5055947;28;20040;-76
2021/03/20 08:24:31;;;;;;;7.40;4.28;;;-0.30;99.90;;;;;;5055288;28;20036;-76
2021/03/20 08:27:08;;;;;;;6.53;3.97;;;-0.30;99.90;;;;;;5071360;28;20040;-76
2021/03/20 08:30:06;;;;;;;9.88;4.07;;;-0.20;99.90;;;;;;5070077;28;20540;-76
2021/03/20 08:33:27;;;;;;;5.18;3.20;;;-0.20;99.90;;;;;;5055139;28;20044;-76
2021/03/20 08:36:41;;;;;;;7.72;3.95;;;-0.20;99.90;;;;;;5054873;28;20040;-77
2021/03/20 08:39:29;;;;;;;6.00;3.60;;;-0.10;99.90;;;;;;5089672;28;20045;-80
2021/03/20 08:42:35;;;;;;;7.43;4.03;;;0.10;99.90;;;;;;5069919;28;20479;-78
2021/03/20 08:45:29;;;;;;;11.38;4.15;;;0.40;99.90;;;;;;5057515;28;20083;-78
2021/03/20 08:48:24;;;;;;;4.25;3.40;;;0.40;99.90;;;;;;5058040;28;20059;-79
2021/03/20 08:50:58;;;;;;;7.93;3.63;;;0.30;99.90;;;;;;5058712;28;20144;-78
2021/03/20 08:53:38;;;;;;;;;;;0.00;99.90;;;;;;5063991;28;20130;-78
2021/03/20 08:56:13;;;;;;;6.15;2.97;;;-0.10;99.90;;;;;;5075089;28;20349;-79
2021/03/20 08:59:03;;;;;;;5.00;3.35;;;-0.20;99.90;;;;;;5058671;28;20044;-78
2021/03/20 09:01:42;;;;;;;5.32;3.30;;;-0.30;99.90;;;;;;5057510;28;20480;-78
2021/03/20 09:04:40;;;;;;;4.60;3.08;;;-0.40;99.90;;;;;;5080659;28;20100;-77
2021/03/20 09:07:26;;;;;;;15.43;7.57;;;-0.30;99.90;;;;;;5079709;28;20036;-77
2021/03/20 09:10:00;;;;;;;15.13;6.15;;;-0.20;99.90;;;;;;5095910;28;20036;-78
2021/03/20 09:12:32;;;;;;;5.50;3.60;;;-0.20;99.90;;;;;;5081100;28;20055;-78
2021/03/20 09:15:14;;;;;;;5.30;3.25;;;-0.20;99.90;;;;;;5099664;28;20043;-78
2021/03/20 09:17:44;;;;;;;4.70;3.17;;;0.10;99.90;;;;;;5064154;28;20048;-78
2021/03/20 09:20:41;;;;;;;5.88;3.67;;;0.20;99.90;;;;;;5074023;28;20063;-80
2021/03/20 09:23:26;;;;;;;4.25;2.85;;;0.20;99.90;;;;;;5098830;28;20047;-78
2021/03/20 09:26:05;;;;;;;4.20;2.75;;;0.20;99.90;;;;;;5099471;28;20556;-78
2021/03/20 09:29:07;;;;;;;7.40;3.13;;;0.20;99.90;;;;;;5086082;28;20047;-78
2021/03/20 09:31:57;;;;;;;4.18;2.88;;;0.40;99.90;;;;;;5042689;28;20067;-78
2021/03/20 09:34:30;;;;;;;3.72;2.60;;;0.60;97.20;;;;;;5075275;28;20035;-78
2021/03/20 09:37:25;;;;;;;3.78;3.08;;;0.70;96.60;;;;;;5080790;28;20556;-77
2021/03/20 09:39:57;;;;;;;5.22;2.92;;;0.90;93.80;;;;;;5057604;28;20112;-78
2021/03/20 09:42:32;;;;;;;4.95;2.70;;;1.20;96.30;;;;;;5062187;28;20089;-78
2021/03/20 09:45:12;;;;;;;3.15;2.40;;;1.50;93.10;;;;;;5074722;28;20070;-79
2021/03/20 09:47:47;;;;;;;4.15;3.03;;;1.70;91.50;;;;;;5059618;28;20099;-77
2021/03/20 09:50:18;;;;;;;4.68;3.72;;;1.80;91.50;;;;;;5059958;28;20035;-78
2021/03/20 09:52:56;;;;;;;5.15;3.50;;;1.70;93.60;;;;;;5077776;28;20115;-80
2021/03/20 09:55:30;;;;;;;5.22;3.63;;;1.20;95.50;;;;;;5061369;28;20155;-77
2021/03/20 09:58:04;;;;;;;6.13;3.97;;;0.90;99.00;;;;;;5078078;28;20054;-77
2021/03/20 10:01:00;;;;;;;6.07;3.60;;;0.70;99.50;;;;;;5056112;28;20040;-77
2021/03/20 10:03:50;;;;;;;5.53;3.92;;;0.40;99.90;;;;;;5076814;28;20046;-77
2021/03/20 10:06:31;;;;;;;6.88;3.75;;;0.30;99.90;;;;;;5097203;28;20067;-77
2021/03/20 10:09:12;;;;;;;4.82;3.70;;;0.20;99.90;;;;;;5092888;28;20031;-78
2021/03/20 10:11:55;;;;;;;5.15;3.58;;;0.10;99.90;;;;;;5068174;28;20047;-79
2021/03/20 10:14:32;;;;;;;9.18;4.50;;;0.10;99.90;;;;;;5063148;28;20051;-77
2021/03/20 10:17:16;;;;;;;7.45;4.60;;;0.20;99.90;;;;;;5060738;28;20038;-77
2021/03/20 10:19:51;;;;;;;9.13;4.05;;;0.20;99.90;;;;;;5075776;28;20054;-80
2021/03/20 10:22:29;;;;;;;9.38;4.78;;;0.10;99.90;;;;;;5075302;28;20521;-77
2021/03/20 10:25:03;;;;;;;4.95;3.53;;;0.20;99.90;;;;;;5091342;28;20122;-78
2021/03/20 10:27:48;;;;;;;10.00;4.65;;;0.40;99.90;;;;;;5046863;28;20507;-79
2021/03/20 10:30:18;;;;;;;5.30;3.90;;;0.60;99.90;;;;;;5064665;28;20096;-77
2021/03/20 10:33:13;;;;;;;8.85;4.22;;;0.70;99.90;;;;;;5065569;28;20139;-77
2021/03/20 10:35:45;;;;;;;6.57;3.92;;;0.70;99.90;;;;;;5067267;28;20039;-78
2021/03/20 10:38:21;;;;;;;8.35;5.32;;;0.70;99.90;;;;;;5090684;28;20046;-77
2021/03/20 10:41:08;;;;;;;5.55;4.03;;;0.60;99.70;;;;;;5067588;28;20406;-77
2021/03/20 10:43:44;;;;;;;5.35;4.05;;;0.50;98.40;;;;;;5060058;28;20512;-78
2021/03/20 10:46:21;;;;;;;4.72;3.28;;;0.50;96.00;;;;;;5066817;28;20046;-79
2021/03/20 10:48:56;;;;;;;4.40;3.35;;;0.60;95.80;;;;;;5080135;28;20131;-77
2021/03/20 10:51:24;;;;;;;4.40;2.80;;;0.60;93.90;;;;;;5070704;28;20071;-78
2021/03/20 10:54:06;;;;;;;;;;;0.90;93.10;;;;;;5059422;28;20044;-79
2021/03/20 10:56:40;;;;;;;4.43;2.95;;;1.20;89.70;;;;;;5056673;28;19963;-78
2021/03/20 10:59:33;;;;;;;4.30;2.88;;;1.40;81.50;;;;;;5077795;28;20040;-78
2021/03/20 11:02:20;;;;;;;5.88;3.35;;;1.40;87.10;;;;;;5065814;28;20129;-80
2021/03/20 11:04:53;;;;;;;4.43;2.85;;;1.40;85.50;;;;;;5065760;28;20055;-80
2021/03/20 11:07:24;;;;;;;8.63;3.42;;;1.30;86.00;;;;;;5055795;28;20032;-78
2021/03/20 11:10:11;;;;;;;8.27;3.47;;;1.30;90.80;;;;;;5058060;28;20108;-79
2021/03/20 11:12:42;;;;;;;5.18;3.08;;;1.30;93.80;;;;;;5083769;28;20122;-78
2021/03/20 11:15:23;;;;;;;7.07;4.30;;;1.40;93.10;;;;;;5061290;28;20495;-79
2021/03/20 11:17:58;;;;;;;5.43;2.85;;;1.40;93.00;;;;;;5074500;28;20112;-81
2021/03/20 11:20:38;;;;;;;8.18;3.97;;;1.50;90.50;;;;;;5064018;28;20040;-78
2021/03/20 11:23:36;;;;;;;4.20;2.85;;;1.70;91.50;;;;;;5078644;28;20049;-78
2021/03/20 11:26:22;;;;;;;4.35;2.92;;;1.80;85.10;;;;;;5078884;28;20074;-78
2021/03/20 11:28:54;;;;;;;5.00;3.53;;;1.60;81.10;;;;;;5095740;28;20043;-77
2021/03/20 11:31:26;;;;;;;3.50;3.10;;;1.40;86.80;;;;;;5094158;28;20035;-77
2021/03/20 11:33:58;;;;;;;3.97;3.22;;;1.40;83.70;;;;;;5088910;28;20128;-79
2021/03/20 11:36:29;;;;;;;4.30;2.67;;;1.40;84.80;;;;;;5058695;28;20144;-80
2021/03/20 11:39:07;;;;;;;7.30;3.55;;;1.50;89.90;;;;;;5059076;28;20517;-78
2021/03/20 11:41:39;;;;;;;2.88;2.40;;;1.70;82.90;;;;;;5059755;28;20040;-79
2021/03/20 11:44:26;;;;;;;4.43;3.00;;;1.60;73.70;;;;;;5060667;28;20048;-79
2021/03/20 11:47:03;;;;;;;3.88;2.88;;;1.40;77.40;;;;;;5059087;28;20085;-79
2021/03/20 11:49:38;;;;;;;3.13;2.58;;;1.50;80.30;;;;;;5074304;28;20046;-79
2021/03/20 11:52:15;;;;;;;2.83;2.45;;;1.60;80.60;;;;;;5058106;28;20135;-79
2021/03/20 11:55:07;;;;;;;5.43;3.38;;;1.60;80.50;;;;;;5059084;28;20040;-79
2021/03/20 11:57:40;;;;;;;8.40;3.83;;;1.70;81.80;;;;;;5054316;28;20051;-79
2021/03/20 12:00:33;;;;;;;5.00;3.33;;;1.60;78.60;;;;;;5054639;28;20047;-78
2021/03/20 12:03:21;;;;;;;8.00;3.33;;;1.40;80.70;;;;;;5038668;28;20044;-79
2021/03/20 12:06:14;;;;;;;6.20;3.67;;;1.30;81.50;;;;;;5054298;28;20076;-76
2021/03/20 12:08:51;;;;;;;4.63;3.83;;;1.20;78.90;;;;;;5053498;28;20042;-76
2021/03/20 12:11:42;;;;;;;3.28;2.33;;;1.10;81.70;;;;;;5061933;28;20066;-78
2021/03/20 12:14:34;;;;;;;3.53;1.85;;;1.10;80.30;;;;;;5058287;28;20059;-79
2021/03/20 12:17:12;;;;;;;6.25;2.53;;;1.00;77.10;;;;;;5058648;28;20036;-79
2021/03/20 12:19:57;;;;;;;5.13;3.20;;;0.90;81.90;;;;;;5061915;28;20046;-79
2021/03/20 12:22:29;;;;;;;16.60;6.88;;;0.90;84.50;;;;;;5071338;28;20040;-78
2021/03/20 12:25:20;;;;;;;4.22;2.65;;;1.10;83.50;;;;;;5074314;28;20441;-79
2021/03/20 12:28:11;;;;;;;16.10;6.65;;;1.50;77.20;;;;;;5073764;28;20038;-79
2021/03/20 12:30:42;;;;;;;5.30;3.17;;;1.60;77.30;;;;;;5074324;28;20040;-79
2021/03/20 12:33:18;;;;;;;4.25;2.45;;;1.80;80.00;;;;;;5057599;28;20086;-80
2021/03/20 12:35:50;;;;;;;5.45;2.67;;;2.00;74.10;;;;;;5074278;28;20054;-79
2021/03/20 12:38:26;;;;;;;6.03;3.65;;;2.10;71.40;;;;;;5073658;28;20107;-81
2021/03/20 12:41:00;;;;;;;5.82;3.30;;;2.20;83.30;;;;;;5056423;28;20048;-81
2021/03/20 12:43:37;;;;;;;6.38;2.90;;;2.50;84.50;;;;;;5076192;28;20040;-79
2021/03/20 12:46:10;;;;;;;4.90;2.90;;;2.50;75.80;;;;;;5076997;28;20617;-79
2021/03/20 12:48:42;;;;;;;3.88;2.45;;;2.40;74.30;;;;;;5060503;28;20131;-81
2021/03/20 12:51:22;;;;;;;3.88;2.83;;;2.30;69.40;;;;;;5059822;28;20138;-79
2021/03/20 12:53:54;;;;;;;4.80;2.40;;;2.30;75.40;;;;;;5076920;28;20139;-80
2021/03/20 12:56:25;;;;;;;3.83;2.40;;;2.20;74.60;;;;;;5061023;28;20567;-79
2021/03/20 12:58:56;;;;;;;3.00;2.08;;;2.10;71.40;;;;;;5077718;28;20505;-79
2021/03/20 13:01:27;;;;;;;7.82;4.28;;;2.10;69.40;;;;;;5060639;28;20047;-78
2021/03/20 13:03:59;;;;;;;7.28;3.05;;;2.10;75.40;;;;;;5061194;28;20043;-78
2021/03/20 13:06:30;;;;;;;12.57;4.60;;;2.10;73.60;;;;;;5060834;28;20498;-79
2021/03/20 13:09:01;;;;;;;11.93;4.88;;;2.10;71.60;;;;;;5077181;28;20044;-78
2021/03/20 13:11:28;;;;;;;7.88;4.35;;;2.40;72.10;;;;;;5076466;28;20043;-78
2021/03/20 13:14:00;;;;;;;5.10;2.40;;;2.60;76.40;;;;;;5062363;28;20124;-78
2021/03/20 13:16:32;;;;;;;3.63;2.30;;;2.60;65.00;;;;;;5071524;28;20111;-78
2021/03/20 13:19:04;;;;;;;3.90;2.28;;;2.60;65.50;;;;;;5095115;28;20312;-78
2021/03/20 13:21:32;;;;;;;26.23;14.00;;;2.50;68.10;;;;;;5062585;28;20123;-78
2021/03/20 13:24:04;;;;;;;58.88;22.73;;;2.50;66.80;;;;;;5080616;28;20097;-78
2021/03/20 13:26:35;;;;;;;118.97;37.67;;;2.50;64.80;;;;;;5096352;28;20086;-78
2021/03/20 13:29:07;;;;;;;103.60;32.53;;;2.40;63.90;;;;;;5096307;28;20136;-78
2021/03/20 13:31:38;;;;;;;36.30;13.48;;;2.40;65.00;;;;;;5096045;28;20044;-78
2021/03/20 13:34:05;;;;;;;18.90;7.20;;;2.40;67.20;;;;;;5096704;28;20071;-79
2021/03/20 13:36:37;;;;;;;44.63;15.70;;;2.20;64.10;;;;;;5096350;28;20138;-78
2021/03/20 13:39:05;;;;;;;25.58;11.93;;;2.10;62.00;;;;;;5079665;28;20089;-79
2021/03/20 13:41:33;;;;;;;21.40;9.48;;;2.10;62.80;;;;;;5079359;28;20093;-78
2021/03/20 13:43:59;;;;;;;11.55;5.25;;;2.10;67.50;;;;;;5079230;28;20399;-79
2021/03/20 13:46:25;;;;;;;8.00;4.15;;;2.10;67.90;;;;;;5080199;28;20083;-78
2021/03/20 13:48:56;;;;;;;19.33;11.30;;;2.50;66.50;;;;;;5080108;28;20072;-78
2021/03/20 13:51:28;;;;;;;12.77;8.77;;;2.80;69.80;;;;;;5080552;28;20450;-79